sensor_id;sensor_type;location;lat;lon;timestamp;temperature;humidity
9849;DHT22;4963;51.444;6.528;2023-12-04T00:00:36;0.30;99.90
9849;DHT22;4963;51.444;6.528;2023-12-04T00:03:03;0.30;99.90
9849;DHT22;4963;51.444;6.528;2023-12-04T00:05:29;0.30;99.90
9849;DHT22;4963;51.444;6.528;2023-12-04T00:07:58;0.30;99.90
9849;DHT22;4963;51.444;6.528;2023-12-04T00:10:25;0.30;99.90
9849;DHT22;4963;51.444;6.528;2023-12-04T00:12:51;0.40;99.90
9849;DHT22;4963;51.444;6.528;2023-12-04T00:15:19;0.40;99.90
9849;DHT22;4963;51.444;6.528;2023-12-04T00:17:47;0.40;99.90
9849;DHT22;4963;51.444;6.528;2023-12-04T00:20:14;0.50;99.90
9849;DHT22;4963;51.444;6.528;2023-12-04T00:22:41;0.50;99.90
9849;DHT22;4963;51.444;6.528;2023-12-04T00:25:09;0.50;99.90
9849;DHT22;4963;51.444;6.528;2023-12-04T00:27:36;0.50;99.90
9849;DHT22;4963;51.444;6.528;2023-12-04T00:30:04;0.50;99.90
9849;DHT22;4963;51.444;6.528;2023-12-04T00:32:31;0.50;99.90
9849;DHT22;4963;51.444;6.528;2023-12-04T00:34:58;0.50;99.90
9849;DHT22;4963;51.444;6.528;2023-12-04T00:37:26;0.50;99.90
9849;DHT22;4963;51.444;6.528;2023-12-04T00:39:53;0.50;99.90
9849;DHT22;4963;51.444;6.528;2023-12-04T00:42:21;0.50;99.90
9849;DHT22;4963;51.444;6.528;2023-12-04T00:44:48;0.50;99.90
9849;DHT22;4963;51.444;6.528;2023-12-04T00:47:15;0.60;99.90
9849;DHT22;4963;51.444;6.528;2023-12-04T00:49:42;0.60;99.90
9849;DHT22;4963;51.444;6.528;2023-12-04T00:52:09;0.50;99.90
9849;DHT22;4963;51.444;6.528;2023-12-04T00:54:38;0.50;99.90
9849;DHT22;4963;51.444;6.528;2023-12-04T00:57:05;0.50;99.90
9849;DHT22;4963;51.444;6.528;2023-12-04T00:59:34;0.60;99.90
9849;DHT22;4963;51.444;6.528;2023-12-04T01:02:01;0.60;99.90
9849;DHT22;4963;51.444;6.528;2023-12-04T01:04:28;0.60;99.90
9849;DHT22;4963;51.444;6.528;2023-12-04T01:06:55;0.60;99.90
9849;DHT22;4963;51.444;6.528;2023-12-04T01:09:22;0.60;99.90
9849;DHT22;4963;51.444;6.528;2023-12-04T01:11:50;0.50;99.90
9849;DHT22;4963;51.444;6.528;2023-12-04T01:14:16;0.60;99.90
9849;DHT22;4963;51.444;6.528;2023-12-04T01:16:45;0.60;99.90
9849;DHT22;4963;51.444;6.528;2023-12-04T01:19:12;0.60;99.90
9849;DHT22;4963;51.444;6.528;2023-12-04T01:21:39;0.60;99.90
9849;DHT22;4963;51.444;6.528;2023-12-04T01:24:06;0.60;99.90
9849;DHT22;4963;51.444;6.528;2023-12-04T01:26:32;0.60;99.90
9849;DHT22;4963;51.444;6.528;2023-12-04T01:28:59;0.60;99.90
9849;DHT22;4963;51.444;6.528;2023-12-04T01:31:26;0.70;99.90
9849;DHT22;4963;51.444;6.528;2023-12-04T01:33:54;0.60;99.90
9849;DHT22;4963;51.444;6.528;2023-12-04T01:36:21;0.60;99.90
9849;DHT22;4963;51.444;6.528;2023-12-04T01:38:48;0.70;99.90
9849;DHT22;4963;51.444;6.528;2023-12-04T01:41:15;0.70;99.90
9849;DHT22;4963;51.444;6.528;2023-12-04T01:43:42;0.70;99.90
9849;DHT22;4963;51.444;6.528;2023-12-04T01:46:09;0.70;99.90
9849;DHT22;4963;51.444;6.528;2023-12-04T01:48:36;0.60;99.90
9849;DHT22;4963;51.444;6.528;2023-12-04T01:51:08;0.60;99.90
9849;DHT22;4963;51.444;6.528;2023-12-04T01:53:38;0.70;99.90
9849;DHT22;4963;51.444;6.528;2023-12-04T01:56:06;0.70;99.90
9849;DHT22;4963;51.444;6.528;2023-12-04T01:58:34;0.70;99.90
9849;DHT22;4963;51.444;6.528;2023-12-04T02:01:01;0.70;99.90
9849;DHT22;4963;51.444;6.528;2023-12-04T02:03:28;0.70;99.90
9849;DHT22;4963;51.444;6.528;2023-12-04T02:05:56;0.70;99.90
9849;DHT22;4963;51.444;6.528;2023-12-04T02:08:27;0.70;99.90
9849;DHT22;4963;51.444;6.528;2023-12-04T02:10:54;0.70;99.90
9849;DHT22;4963;51.444;6.528;2023-12-04T02:13:21;0.80;99.90
9849;DHT22;4963;51.444;6.528;2023-12-04T02:15:50;0.80;99.90
9849;DHT22;4963;51.444;6.528;2023-12-04T02:18:19;0.70;99.90
9849;DHT22;4963;51.444;6.528;2023-12-04T02:20:47;0.70;99.90
9849;DHT22;4963;51.444;6.528;2023-12-04T02:23:14;0.70;99.90
9849;DHT22;4963;51.444;6.528;2023-12-04T02:25:42;0.70;99.90
9849;DHT22;4963;51.444;6.528;2023-12-04T02:28:13;0.60;99.90
9849;DHT22;4963;51.444;6.528;2023-12-04T02:30:43;0.70;99.90
9849;DHT22;4963;51.444;6.528;2023-12-04T02:33:11;0.70;99.90
9849;DHT22;4963;51.444;6.528;2023-12-04T02:35:40;0.70;99.90
9849;DHT22;4963;51.444;6.528;2023-12-04T02:38:08;0.60;99.90
9849;DHT22;4963;51.444;6.528;2023-12-04T02:40:35;0.60;99.90
9849;DHT22;4963;51.444;6.528;2023-12-04T02:43:04;0.60;99.90
9849;DHT22;4963;51.444;6.528;2023-12-04T02:45:31;0.70;99.90
9849;DHT22;4963;51.444;6.528;2023-12-04T02:47:57;0.70;99.90
9849;DHT22;4963;51.444;6.528;2023-12-04T02:50:24;0.70;99.90
9849;DHT22;4963;51.444;6.528;2023-12-04T02:52:51;0.60;99.90
9849;DHT22;4963;51.444;6.528;2023-12-04T02:55:19;0.70;99.90
9849;DHT22;4963;51.444;6.528;2023-12-04T02:57:46;0.70;99.90
9849;DHT22;4963;51.444;6.528;2023-12-04T03:00:15;0.70;99.90
9849;DHT22;4963;51.444;6.528;2023-12-04T03:02:42;0.70;99.90
9849;DHT22;4963;51.444;6.528;2023-12-04T03:05:09;0.70;99.90
9849;DHT22;4963;51.444;6.528;2023-12-04T03:07:36;0.70;99.90
9849;DHT22;4963;51.444;6.528;2023-12-04T03:10:03;0.70;99.90
9849;DHT22;4963;51.444;6.528;2023-12-04T03:12:30;0.70;99.90
9849;DHT22;4963;51.444;6.528;2023-12-04T03:14:58;0.70;99.90
9849;DHT22;4963;51.444;6.528;2023-12-04T03:17:28;0.70;99.90
9849;DHT22;4963;51.444;6.528;2023-12-04T03:19:55;0.70;99.90
9849;DHT22;4963;51.444;6.528;2023-12-04T03:22:22;0.70;99.90
9849;DHT22;4963;51.444;6.528;2023-12-04T03:24:49;0.70;99.90
9849;DHT22;4963;51.444;6.528;2023-12-04T03:27:16;0.70;99.90
9849;DHT22;4963;51.444;6.528;2023-12-04T03:29:43;0.70;99.90
9849;DHT22;4963;51.444;6.528;2023-12-04T03:32:09;0.70;99.90
9849;DHT22;4963;51.444;6.528;2023-12-04T03:34:38;0.70;99.90
9849;DHT22;4963;51.444;6.528;2023-12-04T03:37:04;0.80;99.90
9849;DHT22;4963;51.444;6.528;2023-12-04T03:39:31;0.70;99.90
9849;DHT22;4963;51.444;6.528;2023-12-04T03:41:58;0.70;99.90
9849;DHT22;4963;51.444;6.528;2023-12-04T03:44:25;0.80;99.90
9849;DHT22;4963;51.444;6.528;2023-12-04T03:46:52;0.70;99.90
9849;DHT22;4963;51.444;6.528;2023-12-04T03:49:20;0.70;99.90
9849;DHT22;4963;51.444;6.528;2023-12-04T03:51:48;0.70;99.90
9849;DHT22;4963;51.444;6.528;2023-12-04T03:54:15;0.70;99.90
9849;DHT22;4963;51.444;6.528;2023-12-04T03:56:42;0.70;99.90
9849;DHT22;4963;51.444;6.528;2023-12-04T03:59:09;0.70;99.90
9849;DHT22;4963;51.444;6.528;2023-12-04T04:01:36;0.70;99.90
9849;DHT22;4963;51.444;6.528;2023-12-04T04:04:03;0.70;99.90
9849;DHT22;4963;51.444;6.528;2023-12-04T04:06:30;0.70;99.90
9849;DHT22;4963;51.444;6.528;2023-12-04T04:08:58;0.80;99.90
9849;DHT22;4963;51.444;6.528;2023-12-04T04:11:25;0.70;99.90
9849;DHT22;4963;51.444;6.528;2023-12-04T04:13:52;0.70;99.90
9849;DHT22;4963;51.444;6.528;2023-12-04T04:16:19;0.70;99.90
9849;DHT22;4963;51.444;6.528;2023-12-04T04:18:46;0.70;99.90
9849;DHT22;4963;51.444;6.528;2023-12-04T04:21:13;0.70;99.90
9849;DHT22;4963;51.444;6.528;2023-12-04T04:23:40;0.70;99.90
9849;DHT22;4963;51.444;6.528;2023-12-04T04:26:08;0.70;99.90
9849;DHT22;4963;51.444;6.528;2023-12-04T04:28:35;0.60;99.90
9849;DHT22;4963;51.444;6.528;2023-12-04T04:31:02;0.70;99.90
9849;DHT22;4963;51.444;6.528;2023-12-04T04:33:29;0.70;99.90
9849;DHT22;4963;51.444;6.528;2023-12-04T04:35:56;0.70;99.90
9849;DHT22;4963;51.444;6.528;2023-12-04T04:38:22;0.70;99.90
9849;DHT22;4963;51.444;6.528;2023-12-04T04:40:49;0.70;99.90
9849;DHT22;4963;51.444;6.528;2023-12-04T04:43:19;0.70;99.90
9849;DHT22;4963;51.444;6.528;2023-12-04T04:45:46;0.70;99.90
9849;DHT22;4963;51.444;6.528;2023-12-04T04:48:13;0.70;99.90
9849;DHT22;4963;51.444;6.528;2023-12-04T04:50:40;0.70;99.90
9849;DHT22;4963;51.444;6.528;2023-12-04T04:53:07;0.70;99.90
9849;DHT22;4963;51.444;6.528;2023-12-04T04:55:34;0.80;99.90
9849;DHT22;4963;51.444;6.528;2023-12-04T04:58:00;0.80;99.90
9849;DHT22;4963;51.444;6.528;2023-12-04T05:00:29;0.70;99.90
9849;DHT22;4963;51.444;6.528;2023-12-04T05:02:56;0.80;99.90
9849;DHT22;4963;51.444;6.528;2023-12-04T05:05:22;0.70;99.90
9849;DHT22;4963;51.444;6.528;2023-12-04T05:07:49;0.70;99.90
9849;DHT22;4963;51.444;6.528;2023-12-04T05:10:16;0.70;99.90
9849;DHT22;4963;51.444;6.528;2023-12-04T05:12:43;0.70;99.90
9849;DHT22;4963;51.444;6.528;2023-12-04T05:15:10;0.70;99.90
9849;DHT22;4963;51.444;6.528;2023-12-04T05:17:38;0.70;99.90
9849;DHT22;4963;51.444;6.528;2023-12-04T05:20:06;0.80;99.90
9849;DHT22;4963;51.444;6.528;2023-12-04T05:22:34;0.70;99.90
9849;DHT22;4963;51.444;6.528;2023-12-04T05:25:01;0.70;99.90
9849;DHT22;4963;51.444;6.528;2023-12-04T05:27:28;0.80;99.90
9849;DHT22;4963;51.444;6.528;2023-12-04T05:29:55;0.80;99.90
9849;DHT22;4963;51.444;6.528;2023-12-04T05:32:22;0.80;99.90
9849;DHT22;4963;51.444;6.528;2023-12-04T05:34:50;0.80;99.90
9849;DHT22;4963;51.444;6.528;2023-12-04T05:37:17;0.80;99.90
9849;DHT22;4963;51.444;6.528;2023-12-04T05:39:44;0.80;99.90
9849;DHT22;4963;51.444;6.528;2023-12-04T05:42:11;0.80;99.90
9849;DHT22;4963;51.444;6.528;2023-12-04T05:44:37;0.70;99.90
9849;DHT22;4963;51.444;6.528;2023-12-04T05:47:04;0.70;99.90
9849;DHT22;4963;51.444;6.528;2023-12-04T05:49:33;0.70;99.90
9849;DHT22;4963;51.444;6.528;2023-12-04T05:52:01;0.70;99.90
9849;DHT22;4963;51.444;6.528;2023-12-04T05:54:28;0.80;99.90
9849;DHT22;4963;51.444;6.528;2023-12-04T05:56:55;0.70;99.90
9849;DHT22;4963;51.444;6.528;2023-12-04T05:59:22;0.80;99.90
9849;DHT22;4963;51.444;6.528;2023-12-04T06:01:49;0.70;99.90
9849;DHT22;4963;51.444;6.528;2023-12-04T06:04:16;0.70;99.90
9849;DHT22;4963;51.444;6.528;2023-12-04T06:06:43;0.70;99.90
9849;DHT22;4963;51.444;6.528;2023-12-04T06:09:11;0.80;99.90
9849;DHT22;4963;51.444;6.528;2023-12-04T06:11:38;0.80;99.90
9849;DHT22;4963;51.444;6.528;2023-12-04T06:14:05;0.80;99.90
9849;DHT22;4963;51.444;6.528;2023-12-04T06:16:32;0.80;99.90
9849;DHT22;4963;51.444;6.528;2023-12-04T06:18:59;0.80;99.90
9849;DHT22;4963;51.444;6.528;2023-12-04T06:21:26;0.80;99.90
9849;DHT22;4963;51.444;6.528;2023-12-04T06:23:53;0.80;99.90
9849;DHT22;4963;51.444;6.528;2023-12-04T06:26:22;0.80;99.90
9849;DHT22;4963;51.444;6.528;2023-12-04T06:28:49;0.80;99.90
9849;DHT22;4963;51.444;6.528;2023-12-04T06:31:17;0.80;99.90
9849;DHT22;4963;51.444;6.528;2023-12-04T06:33:44;0.80;99.90
9849;DHT22;4963;51.444;6.528;2023-12-04T06:36:12;0.80;99.90
9849;DHT22;4963;51.444;6.528;2023-12-04T06:38:40;0.90;99.90
9849;DHT22;4963;51.444;6.528;2023-12-04T06:41:08;0.80;99.90
9849;DHT22;4963;51.444;6.528;2023-12-04T06:43:38;0.80;99.90
9849;DHT22;4963;51.444;6.528;2023-12-04T06:46:06;0.80;99.90
9849;DHT22;4963;51.444;6.528;2023-12-04T06:48:33;0.70;99.90
9849;DHT22;4963;51.444;6.528;2023-12-04T06:51:00;0.80;99.90
9849;DHT22;4963;51.444;6.528;2023-12-04T06:53:27;0.80;99.90
9849;DHT22;4963;51.444;6.528;2023-12-04T06:55:53;0.80;99.90
9849;DHT22;4963;51.444;6.528;2023-12-04T06:58:20;0.90;99.90
9849;DHT22;4963;51.444;6.528;2023-12-04T07:00:48;0.80;99.90
9849;DHT22;4963;51.444;6.528;2023-12-04T07:03:15;0.90;99.90
9849;DHT22;4963;51.444;6.528;2023-12-04T07:05:42;0.90;99.90
9849;DHT22;4963;51.444;6.528;2023-12-04T07:08:09;0.90;99.90
9849;DHT22;4963;51.444;6.528;2023-12-04T07:10:36;0.90;99.90
9849;DHT22;4963;51.444;6.528;2023-12-04T07:13:03;0.90;99.90
9849;DHT22;4963;51.444;6.528;2023-12-04T07:15:29;0.80;99.90
9849;DHT22;4963;51.444;6.528;2023-12-04T07:17:58;0.90;99.90
9849;DHT22;4963;51.444;6.528;2023-12-04T07:20:24;0.90;99.90
9849;DHT22;4963;51.444;6.528;2023-12-04T07:22:51;0.90;99.90
9849;DHT22;4963;51.444;6.528;2023-12-04T07:25:18;0.90;99.90
9849;DHT22;4963;51.444;6.528;2023-12-04T07:27:45;0.90;99.90
9849;DHT22;4963;51.444;6.528;2023-12-04T07:30:13;0.90;99.90
9849;DHT22;4963;51.444;6.528;2023-12-04T07:32:40;0.90;99.90
9849;DHT22;4963;51.444;6.528;2023-12-04T07:35:08;0.90;99.90
9849;DHT22;4963;51.444;6.528;2023-12-04T07:37:35;0.90;99.90
9849;DHT22;4963;51.444;6.528;2023-12-04T07:40:03;0.90;99.90
9849;DHT22;4963;51.444;6.528;2023-12-04T07:42:31;0.80;99.90
9849;DHT22;4963;51.444;6.528;2023-12-04T07:44:58;0.90;99.90
9849;DHT22;4963;51.444;6.528;2023-12-04T07:47:25;0.90;99.90
9849;DHT22;4963;51.444;6.528;2023-12-04T07:49:51;0.90;99.90
9849;DHT22;4963;51.444;6.528;2023-12-04T07:52:20;0.90;99.90
9849;DHT22;4963;51.444;6.528;2023-12-04T07:54:47;1.00;99.90
9849;DHT22;4963;51.444;6.528;2023-12-04T07:57:13;0.90;99.90
9849;DHT22;4963;51.444;6.528;2023-12-04T07:59:41;1.00;99.90
9849;DHT22;4963;51.444;6.528;2023-12-04T08:02:08;1.00;99.90
9849;DHT22;4963;51.444;6.528;2023-12-04T08:04:34;1.00;99.90
9849;DHT22;4963;51.444;6.528;2023-12-04T08:07:01;1.00;99.90
9849;DHT22;4963;51.444;6.528;2023-12-04T08:09:30;1.00;99.90
9849;DHT22;4963;51.444;6.528;2023-12-04T08:11:57;1.00;99.90
9849;DHT22;4963;51.444;6.528;2023-12-04T08:14:24;1.00;99.90
9849;DHT22;4963;51.444;6.528;2023-12-04T08:16:53;1.00;99.90
9849;DHT22;4963;51.444;6.528;2023-12-04T08:19:20;1.00;99.90
9849;DHT22;4963;51.444;6.528;2023-12-04T08:21:48;1.00;99.90
9849;DHT22;4963;51.444;6.528;2023-12-04T08:24:15;1.00;99.90
9849;DHT22;4963;51.444;6.528;2023-12-04T08:26:45;1.10;99.90
9849;DHT22;4963;51.444;6.528;2023-12-04T08:29:12;1.10;99.90
9849;DHT22;4963;51.444;6.528;2023-12-04T08:31:39;1.10;99.90
9849;DHT22;4963;51.444;6.528;2023-12-04T08:34:06;1.20;99.90
9849;DHT22;4963;51.444;6.528;2023-12-04T08:36:33;1.20;99.90
9849;DHT22;4963;51.444;6.528;2023-12-04T08:39:00;1.20;99.90
9849;DHT22;4963;51.444;6.528;2023-12-04T08:41:27;1.30;99.90
9849;DHT22;4963;51.444;6.528;2023-12-04T08:43:55;1.20;99.90
9849;DHT22;4963;51.444;6.528;2023-12-04T08:46:22;1.30;99.90
9849;DHT22;4963;51.444;6.528;2023-12-04T08:48:51;1.30;99.90
9849;DHT22;4963;51.444;6.528;2023-12-04T08:51:19;1.30;99.90
9849;DHT22;4963;51.444;6.528;2023-12-04T08:53:46;1.30;99.90
9849;DHT22;4963;51.444;6.528;2023-12-04T08:56:13;1.30;99.90
9849;DHT22;4963;51.444;6.528;2023-12-04T08:58:39;1.30;99.90
9849;DHT22;4963;51.444;6.528;2023-12-04T09:01:08;1.30;99.90
9849;DHT22;4963;51.444;6.528;2023-12-04T09:03:35;1.40;99.90
9849;DHT22;4963;51.444;6.528;2023-12-04T09:06:01;1.40;99.90
9849;DHT22;4963;51.444;6.528;2023-12-04T09:08:28;1.50;99.90
9849;DHT22;4963;51.444;6.528;2023-12-04T09:10:55;1.50;99.90
9849;DHT22;4963;51.444;6.528;2023-12-04T09:13:22;1.50;99.90
9849;DHT22;4963;51.444;6.528;2023-12-04T09:15:49;1.50;99.90
9849;DHT22;4963;51.444;6.528;2023-12-04T09:18:18;1.50;99.90
9849;DHT22;4963;51.444;6.528;2023-12-04T09:20:45;1.50;99.90
9849;DHT22;4963;51.444;6.528;2023-12-04T09:23:12;1.60;99.90
9849;DHT22;4963;51.444;6.528;2023-12-04T09:25:39;1.60;99.90
9849;DHT22;4963;51.444;6.528;2023-12-04T09:28:06;1.60;99.90
9849;DHT22;4963;51.444;6.528;2023-12-04T09:30:34;1.60;99.90
9849;DHT22;4963;51.444;6.528;2023-12-04T09:33:02;1.60;99.90
9849;DHT22;4963;51.444;6.528;2023-12-04T09:35:30;1.60;99.90
9849;DHT22;4963;51.444;6.528;2023-12-04T09:37:57;1.60;99.90
9849;DHT22;4963;51.444;6.528;2023-12-04T09:40:25;1.60;99.90
9849;DHT22;4963;51.444;6.528;2023-12-04T09:42:52;1.60;99.90
9849;DHT22;4963;51.444;6.528;2023-12-04T09:45:20;1.60;99.90
9849;DHT22;4963;51.444;6.528;2023-12-04T09:47:48;1.60;99.90
9849;DHT22;4963;51.444;6.528;2023-12-04T09:50:16;1.60;99.90
9849;DHT22;4963;51.444;6.528;2023-12-04T09:52:48;1.70;99.90
9849;DHT22;4963;51.444;6.528;2023-12-04T09:55:16;1.70;99.90
9849;DHT22;4963;51.444;6.528;2023-12-04T09:57:44;1.70;99.90
9849;DHT22;4963;51.444;6.528;2023-12-04T10:00:13;1.70;99.90
9849;DHT22;4963;51.444;6.528;2023-12-04T10:02:41;1.80;99.90
9849;DHT22;4963;51.444;6.528;2023-12-04T10:05:08;1.80;99.90
9849;DHT22;4963;51.444;6.528;2023-12-04T10:07:35;1.80;99.90
9849;DHT22;4963;51.444;6.528;2023-12-04T10:10:05;1.80;99.90
9849;DHT22;4963;51.444;6.528;2023-12-04T10:12:33;1.80;99.90
9849;DHT22;4963;51.444;6.528;2023-12-04T10:15:04;1.80;99.90
9849;DHT22;4963;51.444;6.528;2023-12-04T10:17:35;1.80;99.90
9849;DHT22;4963;51.444;6.528;2023-12-04T10:20:07;1.80;99.90
9849;DHT22;4963;51.444;6.528;2023-12-04T10:22:38;1.80;99.90
9849;DHT22;4963;51.444;6.528;2023-12-04T10:25:16;1.80;99.90
9849;DHT22;4963;51.444;6.528;2023-12-04T10:27:43;1.70;99.90
9849;DHT22;4963;51.444;6.528;2023-12-04T10:30:22;1.80;99.90
9849;DHT22;4963;51.444;6.528;2023-12-04T10:32:54;1.80;99.90
9849;DHT22;4963;51.444;6.528;2023-12-04T10:35:21;1.80;99.90
9849;DHT22;4963;51.444;6.528;2023-12-04T10:37:51;1.80;99.90
9849;DHT22;4963;51.444;6.528;2023-12-04T10:40:24;1.80;99.90
9849;DHT22;4963;51.444;6.528;2023-12-04T10:42:57;1.80;99.90
9849;DHT22;4963;51.444;6.528;2023-12-04T10:45:36;1.80;99.90
9849;DHT22;4963;51.444;6.528;2023-12-04T10:48:03;1.80;99.90
9849;DHT22;4963;51.444;6.528;2023-12-04T10:50:32;1.80;99.90
9849;DHT22;4963;51.444;6.528;2023-12-04T10:53:01;1.90;99.90
9849;DHT22;4963;51.444;6.528;2023-12-04T10:55:31;1.90;99.90
9849;DHT22;4963;51.444;6.528;2023-12-04T10:57:59;1.90;99.90
9849;DHT22;4963;51.444;6.528;2023-12-04T11:00:26;1.90;99.90
9849;DHT22;4963;51.444;6.528;2023-12-04T11:02:55;2.00;99.90
9849;DHT22;4963;51.444;6.528;2023-12-04T11:05:24;2.00;99.90
9849;DHT22;4963;51.444;6.528;2023-12-04T11:07:54;2.00;99.90
9849;DHT22;4963;51.444;6.528;2023-12-04T11:10:26;2.00;99.90
9849;DHT22;4963;51.444;6.528;2023-12-04T11:12:59;2.00;99.90
9849;DHT22;4963;51.444;6.528;2023-12-04T11:15:30;2.10;99.90
9849;DHT22;4963;51.444;6.528;2023-12-04T11:17:59;2.10;99.90
9849;DHT22;4963;51.444;6.528;2023-12-04T11:20:31;2.10;99.90
9849;DHT22;4963;51.444;6.528;2023-12-04T11:22:59;2.10;99.90
9849;DHT22;4963;51.444;6.528;2023-12-04T11:25:28;2.10;99.90
9849;DHT22;4963;51.444;6.528;2023-12-04T11:28:02;2.10;99.90
9849;DHT22;4963;51.444;6.528;2023-12-04T11:30:29;2.10;99.90
9849;DHT22;4963;51.444;6.528;2023-12-04T11:32:56;2.10;99.90
9849;DHT22;4963;51.444;6.528;2023-12-04T11:35:26;2.10;99.90
9849;DHT22;4963;51.444;6.528;2023-12-04T11:37:53;2.10;99.90
9849;DHT22;4963;51.444;6.528;2023-12-04T11:40:20;2.10;99.90
9849;DHT22;4963;51.444;6.528;2023-12-04T11:42:47;2.10;99.90
9849;DHT22;4963;51.444;6.528;2023-12-04T11:45:19;2.10;99.90
9849;DHT22;4963;51.444;6.528;2023-12-04T11:47:51;2.10;99.90
9849;DHT22;4963;51.444;6.528;2023-12-04T11:50:19;2.00;99.90
9849;DHT22;4963;51.444;6.528;2023-12-04T11:52:46;2.00;99.90
9849;DHT22;4963;51.444;6.528;2023-12-04T11:55:16;2.00;99.90
9849;DHT22;4963;51.444;6.528;2023-12-04T11:57:43;2.00;99.90
9849;DHT22;4963;51.444;6.528;2023-12-04T12:00:14;2.00;99.90
9849;DHT22;4963;51.444;6.528;2023-12-04T12:03:01;2.00;99.90
9849;DHT22;4963;51.444;6.528;2023-12-04T12:05:32;2.00;99.90
9849;DHT22;4963;51.444;6.528;2023-12-04T12:08:01;2.00;99.90
9849;DHT22;4963;51.444;6.528;2023-12-04T12:10:29;2.00;99.90
9849;DHT22;4963;51.444;6.528;2023-12-04T12:12:56;2.00;99.90
9849;DHT22;4963;51.444;6.528;2023-12-04T12:15:24;2.00;99.90
9849;DHT22;4963;51.444;6.528;2023-12-04T12:17:53;2.00;99.90
9849;DHT22;4963;51.444;6.528;2023-12-04T12:20:20;1.90;99.90
9849;DHT22;4963;51.444;6.528;2023-12-04T12:22:48;1.90;99.90
9849;DHT22;4963;51.444;6.528;2023-12-04T12:25:15;1.90;99.90
9849;DHT22;4963;51.444;6.528;2023-12-04T12:27:43;1.90;99.90
9849;DHT22;4963;51.444;6.528;2023-12-04T12:30:12;1.90;99.90
9849;DHT22;4963;51.444;6.528;2023-12-04T12:32:39;1.80;99.90
9849;DHT22;4963;51.444;6.528;2023-12-04T12:35:07;1.80;99.90
9849;DHT22;4963;51.444;6.528;2023-12-04T12:37:35;1.80;99.90
9849;DHT22;4963;51.444;6.528;2023-12-04T12:40:04;1.70;99.90
9849;DHT22;4963;51.444;6.528;2023-12-04T12:42:35;1.70;99.90
9849;DHT22;4963;51.444;6.528;2023-12-04T12:45:02;1.70;99.90
9849;DHT22;4963;51.444;6.528;2023-12-04T12:47:32;1.70;99.90
9849;DHT22;4963;51.444;6.528;2023-12-04T12:50:01;1.70;99.90
9849;DHT22;4963;51.444;6.528;2023-12-04T12:52:29;1.80;99.90
9849;DHT22;4963;51.444;6.528;2023-12-04T12:54:56;1.80;99.90
9849;DHT22;4963;51.444;6.528;2023-12-04T12:57:23;1.80;99.90
9849;DHT22;4963;51.444;6.528;2023-12-04T12:59:51;1.80;99.90
9849;DHT22;4963;51.444;6.528;2023-12-04T13:02:20;1.80;99.90
9849;DHT22;4963;51.444;6.528;2023-12-04T13:04:47;1.90;99.90
9849;DHT22;4963;51.444;6.528;2023-12-04T13:07:14;1.90;99.90
9849;DHT22;4963;51.444;6.528;2023-12-04T13:09:42;1.80;99.90
9849;DHT22;4963;51.444;6.528;2023-12-04T13:12:10;1.80;99.90
9849;DHT22;4963;51.444;6.528;2023-12-04T13:14:41;1.70;99.90
9849;DHT22;4963;51.444;6.528;2023-12-04T13:17:08;1.80;99.90
9849;DHT22;4963;51.444;6.528;2023-12-04T13:19:35;1.80;99.90
9849;DHT22;4963;51.444;6.528;2023-12-04T13:22:02;1.70;99.90
9849;DHT22;4963;51.444;6.528;2023-12-04T13:24:29;1.80;99.90
9849;DHT22;4963;51.444;6.528;2023-12-04T13:26:58;1.80;99.90
9849;DHT22;4963;51.444;6.528;2023-12-04T13:29:24;1.80;99.90
9849;DHT22;4963;51.444;6.528;2023-12-04T13:31:51;1.90;99.90
9849;DHT22;4963;51.444;6.528;2023-12-04T13:34:18;1.90;99.90
9849;DHT22;4963;51.444;6.528;2023-12-04T13:36:45;1.90;99.90
9849;DHT22;4963;51.444;6.528;2023-12-04T13:39:15;1.90;99.90
9849;DHT22;4963;51.444;6.528;2023-12-04T13:41:52;1.90;99.90
9849;DHT22;4963;51.444;6.528;2023-12-04T13:44:38;1.90;99.90
9849;DHT22;4963;51.444;6.528;2023-12-04T13:47:06;1.80;99.90
9849;DHT22;4963;51.444;6.528;2023-12-04T13:49:33;1.80;99.90
9849;DHT22;4963;51.444;6.528;2023-12-04T13:52:00;1.80;99.90
9849;DHT22;4963;51.444;6.528;2023-12-04T13:54:32;1.90;99.90
9849;DHT22;4963;51.444;6.528;2023-12-04T13:57:09;1.90;99.90
9849;DHT22;4963;51.444;6.528;2023-12-04T13:59:45;1.90;99.90
9849;DHT22;4963;51.444;6.528;2023-12-04T14:02:12;1.90;99.90
9849;DHT22;4963;51.444;6.528;2023-12-04T14:04:43;1.90;99.90
9849;DHT22;4963;51.444;6.528;2023-12-04T14:07:10;1.90;99.90
9849;DHT22;4963;51.444;6.528;2023-12-04T14:09:38;1.90;99.90
9849;DHT22;4963;51.444;6.528;2023-12-04T14:12:06;1.90;99.90
9849;DHT22;4963;51.444;6.528;2023-12-04T14:14:33;1.90;99.90
9849;DHT22;4963;51.444;6.528;2023-12-04T14:17:26;1.90;99.90
9849;DHT22;4963;51.444;6.528;2023-12-04T14:19:53;1.90;99.90
9849;DHT22;4963;51.444;6.528;2023-12-04T14:22:22;1.90;99.90
9849;DHT22;4963;51.444;6.528;2023-12-04T14:24:48;1.90;99.90
9849;DHT22;4963;51.444;6.528;2023-12-04T14:27:15;1.90;99.90
9849;DHT22;4963;51.444;6.528;2023-12-04T14:29:42;2.00;99.90
9849;DHT22;4963;51.444;6.528;2023-12-04T14:32:10;2.00;99.90
9849;DHT22;4963;51.444;6.528;2023-12-04T14:34:40;2.00;99.90
9849;DHT22;4963;51.444;6.528;2023-12-04T14:37:06;2.00;99.90
9849;DHT22;4963;51.444;6.528;2023-12-04T14:39:35;2.00;99.90
9849;DHT22;4963;51.444;6.528;2023-12-04T14:42:02;2.00;99.90
9849;DHT22;4963;51.444;6.528;2023-12-04T14:44:29;1.90;99.90
9849;DHT22;4963;51.444;6.528;2023-12-04T14:46:56;2.00;99.90
9849;DHT22;4963;51.444;6.528;2023-12-04T14:49:23;1.90;99.90
9849;DHT22;4963;51.444;6.528;2023-12-04T14:51:52;2.00;99.90
9849;DHT22;4963;51.444;6.528;2023-12-04T14:54:18;2.00;99.90
9849;DHT22;4963;51.444;6.528;2023-12-04T14:56:58;2.00;99.90
9849;DHT22;4963;51.444;6.528;2023-12-04T14:59:42;2.00;99.90
9849;DHT22;4963;51.444;6.528;2023-12-04T15:02:48;2.00;99.90
9849;DHT22;4963;51.444;6.528;2023-12-04T15:05:29;2.10;99.90
9849;DHT22;4963;51.444;6.528;2023-12-04T15:08:26;2.10;99.90
9849;DHT22;4963;51.444;6.528;2023-12-04T15:11:22;2.00;99.90
9849;DHT22;4963;51.444;6.528;2023-12-04T15:14:16;2.00;99.90
9849;DHT22;4963;51.444;6.528;2023-12-04T15:16:56;2.00;99.90
9849;DHT22;4963;51.444;6.528;2023-12-04T15:19:39;2.00;99.90
9849;DHT22;4963;51.444;6.528;2023-12-04T15:22:22;1.90;99.90
9849;DHT22;4963;51.444;6.528;2023-12-04T15:24:48;1.90;99.90
9849;DHT22;4963;51.444;6.528;2023-12-04T15:27:15;1.90;99.90
9849;DHT22;4963;51.444;6.528;2023-12-04T15:29:42;1.90;99.90
9849;DHT22;4963;51.444;6.528;2023-12-04T15:32:09;1.90;99.90
9849;DHT22;4963;51.444;6.528;2023-12-04T15:34:38;1.90;99.90
9849;DHT22;4963;51.444;6.528;2023-12-04T15:37:05;1.80;99.90
9849;DHT22;4963;51.444;6.528;2023-12-04T15:39:31;1.80;99.90
9849;DHT22;4963;51.444;6.528;2023-12-04T15:41:58;1.80;99.90
9849;DHT22;4963;51.444;6.528;2023-12-04T15:44:24;1.80;99.90
9849;DHT22;4963;51.444;6.528;2023-12-04T15:46:52;1.80;99.90
9849;DHT22;4963;51.444;6.528;2023-12-04T15:49:18;1.70;99.90
9849;DHT22;4963;51.444;6.528;2023-12-04T15:51:45;1.70;99.90
9849;DHT22;4963;51.444;6.528;2023-12-04T15:54:11;1.60;99.90
9849;DHT22;4963;51.444;6.528;2023-12-04T15:56:38;1.60;99.90
9849;DHT22;4963;51.444;6.528;2023-12-04T15:59:04;1.50;99.90
9849;DHT22;4963;51.444;6.528;2023-12-04T16:01:31;1.50;99.90
9849;DHT22;4963;51.444;6.528;2023-12-04T16:03:58;1.40;99.90
9849;DHT22;4963;51.444;6.528;2023-12-04T16:06:25;1.40;99.90
9849;DHT22;4963;51.444;6.528;2023-12-04T16:08:52;1.50;99.90
9849;DHT22;4963;51.444;6.528;2023-12-04T16:11:22;1.40;99.90
9849;DHT22;4963;51.444;6.528;2023-12-04T16:13:49;1.40;99.90
9849;DHT22;4963;51.444;6.528;2023-12-04T16:16:18;1.40;99.90
9849;DHT22;4963;51.444;6.528;2023-12-04T16:18:46;1.40;99.90
9849;DHT22;4963;51.444;6.528;2023-12-04T16:21:14;1.40;99.90
9849;DHT22;4963;51.444;6.528;2023-12-04T16:23:41;1.40;99.90